createdAt,value
2023-06-19T00:00:52.777Z,536.00
2023-06-19T00:01:52.798Z,538.00
2023-06-19T00:02:52.795Z,526.00
2023-06-19T00:03:52.810Z,535.00
2023-06-19T00:04:52.764Z,536.00
2023-06-19T00:05:52.773Z,531.00
2023-06-19T00:06:52.808Z,533.00
2023-06-19T00:07:52.825Z,531.00
2023-06-19T00:08:52.793Z,535.00
2023-06-19T00:09:52.807Z,531.00
2023-06-19T00:10:52.772Z,535.00
2023-06-19T00:11:52.798Z,537.00
2023-06-19T00:12:52.794Z,534.00
2023-06-19T00:13:52.787Z,534.00
2023-06-19T00:14:52.806Z,528.00
2023-06-19T00:15:52.844Z,528.00
2023-06-19T00:16:52.793Z,535.00
2023-06-19T00:17:52.806Z,531.00
2023-06-19T00:18:52.828Z,533.00
2023-06-19T00:19:52.792Z,531.00
2023-06-19T00:20:52.787Z,538.00
2023-06-19T00:21:52.784Z,536.00
2023-06-19T00:22:52.858Z,526.00
2023-06-19T00:23:52.782Z,537.00
2023-06-19T00:24:52.763Z,533.00
2023-06-19T00:25:52.782Z,536.00
2023-06-19T00:26:52.779Z,534.00
2023-06-19T00:27:52.791Z,535.00
2023-06-19T00:28:52.801Z,533.00
2023-06-19T00:29:52.759Z,534.00
2023-06-19T00:30:52.793Z,538.00
2023-06-19T00:31:52.753Z,534.00
2023-06-19T00:32:52.746Z,533.00
2023-06-19T00:33:52.770Z,533.00
2023-06-19T00:34:52.765Z,536.00
2023-06-19T00:35:52.782Z,534.00
2023-06-19T00:36:52.814Z,533.00
2023-06-19T00:37:52.790Z,536.00
2023-06-19T00:38:52.767Z,534.00
2023-06-19T00:39:52.787Z,535.00
2023-06-19T00:40:52.779Z,533.00
2023-06-19T00:41:52.814Z,537.00
2023-06-19T00:42:52.799Z,533.00
2023-06-19T00:43:52.816Z,534.00
2023-06-19T00:44:52.804Z,536.00
2023-06-19T00:45:52.837Z,538.00
2023-06-19T00:46:52.823Z,533.00
2023-06-19T00:47:52.884Z,534.00
2023-06-19T00:48:52.801Z,538.00
2023-06-19T00:49:52.802Z,539.00
2023-06-19T00:50:52.855Z,537.00
2023-06-19T00:51:52.813Z,534.00
2023-06-19T00:52:52.892Z,539.00
2023-06-19T00:53:52.827Z,536.00
2023-06-19T00:54:52.833Z,538.00
2023-06-19T00:55:52.853Z,536.00
2023-06-19T00:56:52.870Z,532.00
2023-06-19T00:57:52.837Z,535.00
2023-06-19T00:58:52.876Z,536.00
2023-06-19T00:59:52.862Z,531.00
2023-06-19T01:01:04.380Z,535.00
2023-06-19T01:01:53.945Z,536.00
2023-06-19T01:02:52.909Z,537.00
2023-06-19T01:03:52.922Z,537.00
2023-06-19T01:04:52.881Z,536.00
2023-06-19T01:05:52.860Z,539.00
2023-06-19T01:06:52.865Z,534.00
2023-06-19T01:07:52.852Z,537.00
2023-06-19T01:08:52.805Z,538.00
2023-06-19T01:09:52.801Z,534.00
2023-06-19T01:10:52.832Z,536.00
2023-06-19T01:11:52.810Z,537.00
2023-06-19T01:12:52.794Z,538.00
2023-06-19T01:13:52.821Z,536.00
2023-06-19T01:14:52.826Z,538.00
2023-06-19T01:15:52.794Z,534.00
2023-06-19T01:16:52.836Z,539.00
2023-06-19T01:17:52.858Z,540.00
2023-06-19T01:18:52.781Z,538.00
2023-06-19T01:19:52.769Z,538.00
2023-06-19T01:20:52.731Z,542.00
2023-06-19T01:21:52.741Z,538.00
2023-06-19T01:22:52.725Z,541.00
2023-06-19T01:23:52.762Z,537.00
2023-06-19T01:24:52.764Z,540.00
2023-06-19T01:25:52.749Z,535.00
2023-06-19T01:26:52.738Z,533.00
2023-06-19T01:27:52.729Z,535.00
2023-06-19T01:28:52.713Z,543.00
2023-06-19T01:29:52.725Z,535.00
2023-06-19T01:30:52.704Z,539.00
2023-06-19T01:31:52.687Z,541.00
2023-06-19T01:32:52.723Z,535.00
2023-06-19T01:33:52.689Z,538.00
2023-06-19T01:34:52.705Z,540.00
2023-06-19T01:35:52.692Z,542.00
2023-06-19T01:36:52.668Z,537.00
2023-06-19T01:37:52.767Z,535.00
2023-06-19T01:38:52.685Z,538.00
2023-06-19T01:39:52.648Z,534.00
2023-06-19T01:40:52.648Z,534.00
2023-06-19T01:41:52.660Z,537.00
2023-06-19T01:42:52.652Z,536.00
2023-06-19T01:43:52.613Z,541.00
2023-06-19T01:44:52.648Z,533.00
2023-06-19T01:45:52.594Z,540.00
2023-06-19T01:46:52.720Z,539.00
2023-06-19T01:47:52.625Z,535.00
2023-06-19T01:48:52.606Z,543.00
2023-06-19T01:49:52.598Z,538.00
2023-06-19T01:50:52.605Z,537.00
2023-06-19T01:51:52.608Z,539.00
2023-06-19T01:52:52.610Z,539.00
2023-06-19T01:53:52.624Z,539.00
2023-06-19T01:54:52.628Z,537.00
2023-06-19T01:55:52.641Z,539.00
2023-06-19T01:56:52.655Z,539.00
2023-06-19T01:57:52.660Z,536.00
2023-06-19T01:58:52.687Z,536.00
2023-06-19T01:59:52.706Z,539.00
2023-06-19T02:00:52.690Z,534.00
2023-06-19T02:01:52.687Z,536.00
2023-06-19T02:02:52.732Z,533.00
2023-06-19T02:03:52.786Z,532.00
2023-06-19T02:04:52.720Z,537.00
2023-06-19T02:05:52.727Z,538.00
2023-06-19T02:06:52.716Z,532.00
2023-06-19T02:07:52.726Z,538.00
2023-06-19T02:08:52.774Z,531.00
2023-06-19T02:09:52.770Z,538.00
2023-06-19T02:10:52.762Z,538.00
2023-06-19T02:11:52.772Z,537.00
2023-06-19T02:12:52.769Z,534.00
2023-06-19T02:13:52.768Z,538.00
2023-06-19T02:14:52.762Z,536.00
2023-06-19T02:15:52.783Z,532.00
2023-06-19T02:16:52.802Z,534.00
2023-06-19T02:17:52.916Z,539.00
2023-06-19T02:18:52.799Z,537.00
2023-06-19T02:19:52.818Z,538.00
2023-06-19T02:20:52.799Z,534.00
2023-06-19T02:21:52.822Z,536.00
2023-06-19T02:22:52.787Z,540.00
2023-06-19T02:23:52.812Z,537.00
2023-06-19T02:24:52.818Z,534.00
2023-06-19T02:25:52.825Z,531.00
2023-06-19T02:26:52.827Z,536.00
2023-06-19T02:27:52.838Z,540.00
2023-06-19T02:28:52.826Z,536.00
2023-06-19T02:29:52.853Z,533.00
2023-06-19T02:30:52.858Z,537.00
2023-06-19T02:31:52.857Z,537.00
2023-06-19T02:32:52.921Z,539.00
2023-06-19T02:33:52.864Z,538.00
2023-06-19T02:34:52.900Z,535.00
2023-06-19T02:35:52.881Z,535.00
2023-06-19T02:36:52.866Z,531.00
2023-06-19T02:37:52.868Z,532.00
2023-06-19T02:38:52.886Z,534.00
2023-06-19T02:39:52.887Z,539.00
2023-06-19T02:40:52.918Z,541.00
2023-06-19T02:41:52.869Z,532.00
2023-06-19T02:42:52.922Z,535.00
2023-06-19T02:43:52.910Z,542.00
2023-06-19T02:44:52.909Z,540.00
2023-06-19T02:45:52.945Z,537.00
2023-06-19T02:46:52.967Z,534.00
2023-06-19T02:47:53.020Z,535.00
2023-06-19T02:48:52.945Z,534.00
2023-06-19T02:49:52.955Z,535.00
2023-06-19T02:50:53.008Z,534.00
2023-06-19T02:51:52.966Z,534.00
2023-06-19T02:52:53.012Z,534.00
2023-06-19T02:53:53.019Z,534.00
2023-06-19T02:54:52.990Z,533.00
2023-06-19T02:55:53.030Z,536.00
2023-06-19T02:56:52.984Z,539.00
2023-06-19T02:57:53.048Z,535.00
2023-06-19T02:58:53.013Z,538.00
2023-06-19T02:59:53.030Z,535.00
2023-06-19T03:00:53.028Z,534.00
2023-06-19T03:01:53.029Z,538.00
2023-06-19T03:02:53.129Z,533.00
2023-06-19T03:03:52.979Z,533.00
2023-06-19T03:04:53.023Z,537.00
2023-06-19T03:05:53.021Z,536.00
2023-06-19T03:06:53.018Z,539.00
2023-06-19T03:07:53.048Z,533.00
2023-06-19T03:08:53.040Z,537.00
2023-06-19T03:09:53.046Z,535.00
2023-06-19T03:10:53.068Z,543.00
2023-06-19T03:11:53.066Z,538.00
2023-06-19T03:12:53.100Z,533.00
2023-06-19T03:13:53.106Z,534.00
2023-06-19T03:14:53.064Z,536.00
2023-06-19T03:15:53.083Z,529.00
2023-06-19T03:16:53.140Z,538.00
2023-06-19T03:17:53.241Z,538.00
2023-06-19T03:18:53.545Z,532.00
2023-06-19T03:19:53.145Z,538.00
2023-06-19T03:20:53.165Z,533.00
2023-06-19T03:21:53.162Z,538.00
2023-06-19T03:22:53.194Z,535.00
2023-06-19T03:23:53.222Z,535.00
2023-06-19T03:24:53.222Z,536.00
2023-06-19T03:25:53.241Z,537.00
2023-06-19T03:26:53.191Z,537.00
2023-06-19T03:27:53.257Z,537.00
2023-06-19T03:28:53.271Z,537.00
2023-06-19T03:29:53.241Z,532.00
2023-06-19T03:30:53.280Z,530.00
2023-06-19T03:31:53.286Z,536.00
2023-06-19T03:32:53.311Z,531.00
2023-06-19T03:33:53.287Z,534.00
2023-06-19T03:34:53.349Z,532.00
2023-06-19T03:35:53.336Z,535.00
2023-06-19T03:36:53.337Z,537.00
2023-06-19T03:37:53.392Z,537.00
2023-06-19T03:38:53.374Z,535.00
2023-06-19T03:39:53.365Z,535.00
2023-06-19T03:40:53.378Z,533.00
2023-06-19T03:41:53.382Z,537.00
2023-06-19T03:42:53.386Z,535.00
2023-06-19T03:43:53.402Z,533.00
2023-06-19T03:44:53.420Z,535.00
2023-06-19T03:45:53.487Z,536.00
2023-06-19T03:46:53.430Z,538.00
2023-06-19T03:47:53.513Z,538.00
2023-06-19T03:48:53.521Z,536.00
2023-06-19T03:49:54.798Z,535.00
2023-06-19T03:50:53.518Z,537.00
2023-06-19T03:51:53.534Z,541.00
2023-06-19T03:52:53.543Z,533.00
2023-06-19T03:53:53.556Z,536.00
2023-06-19T03:54:53.523Z,532.00
2023-06-19T03:55:55.484Z,536.00
2023-06-19T03:56:53.520Z,542.00
2023-06-19T03:57:53.517Z,539.00
2023-06-19T03:58:53.515Z,540.00
2023-06-19T03:59:53.561Z,538.00
2023-06-19T04:00:53.521Z,534.00
2023-06-19T04:01:53.530Z,533.00
2023-06-19T04:02:53.699Z,539.00
2023-06-19T04:03:53.477Z,542.00
2023-06-19T04:04:53.481Z,538.00
2023-06-19T04:05:53.455Z,531.00
2023-06-19T04:06:53.473Z,533.00
2023-06-19T04:07:53.479Z,534.00
2023-06-19T04:08:53.441Z,538.00
2023-06-19T04:09:53.457Z,538.00
2023-06-19T04:10:53.423Z,538.00
2023-06-19T04:11:53.481Z,538.00
2023-06-19T04:12:53.483Z,538.00
2023-06-19T04:13:53.445Z,536.00
2023-06-19T04:14:53.417Z,537.00
2023-06-19T04:15:53.441Z,544.00
2023-06-19T04:16:53.389Z,533.00
2023-06-19T04:17:53.455Z,539.00
2023-06-19T04:18:53.363Z,537.00
2023-06-19T04:19:53.428Z,535.00
2023-06-19T04:20:53.388Z,537.00
2023-06-19T04:21:53.371Z,537.00
2023-06-19T04:22:53.391Z,539.00
2023-06-19T04:23:53.399Z,537.00
2023-06-19T04:24:53.362Z,537.00
2023-06-19T04:25:53.348Z,536.00
2023-06-19T04:26:53.331Z,536.00
2023-06-19T04:27:53.359Z,539.00
2023-06-19T04:28:53.324Z,538.00
2023-06-19T04:29:53.358Z,535.00
2023-06-19T04:30:53.333Z,534.00
2023-06-19T04:31:53.299Z,530.00
2023-06-19T04:32:53.382Z,537.00
2023-06-19T04:33:53.275Z,532.00
2023-06-19T04:34:53.280Z,532.00
2023-06-19T04:35:53.262Z,530.00
2023-06-19T04:36:53.269Z,536.00
2023-06-19T04:37:53.266Z,536.00
2023-06-19T04:38:53.524Z,535.00
2023-06-19T04:39:53.257Z,536.00
2023-06-19T04:40:53.267Z,537.00
2023-06-19T04:41:53.232Z,534.00
2023-06-19T04:42:53.254Z,535.00
2023-06-19T04:43:53.225Z,538.00
2023-06-19T04:44:53.228Z,542.00
2023-06-19T04:45:53.281Z,538.00
2023-06-19T04:46:53.203Z,533.00
2023-06-19T04:47:54.473Z,535.00
2023-06-19T04:48:53.207Z,534.00
2023-06-19T04:49:53.192Z,537.00
2023-06-19T04:50:53.166Z,541.00
2023-06-19T04:51:53.178Z,534.00
2023-06-19T04:52:53.212Z,542.00
2023-06-19T04:53:53.188Z,538.00
2023-06-19T04:54:53.162Z,540.00
2023-06-19T04:55:53.139Z,541.00
2023-06-19T04:56:53.143Z,534.00
2023-06-19T04:57:53.140Z,535.00
2023-06-19T04:58:53.126Z,535.00
2023-06-19T04:59:53.154Z,544.00
2023-06-19T05:00:53.119Z,533.00
2023-06-19T05:01:53.151Z,538.00
2023-06-19T05:02:53.125Z,538.00
2023-06-19T05:03:53.102Z,544.00
2023-06-19T05:04:53.100Z,535.00
2023-06-19T05:05:53.112Z,543.00
2023-06-19T05:06:53.118Z,542.00
2023-06-19T05:07:53.099Z,543.00
2023-06-19T05:08:53.083Z,536.00
2023-06-19T05:09:53.065Z,540.00
2023-06-19T05:10:53.068Z,542.00
2023-06-19T05:11:53.080Z,542.00
2023-06-19T05:12:53.081Z,544.00
2023-06-19T05:13:53.097Z,534.00
2023-06-19T05:14:53.037Z,541.00
2023-06-19T05:15:53.071Z,540.00
2023-06-19T05:16:53.040Z,540.00
2023-06-19T05:17:53.176Z,542.00
2023-06-19T05:18:53.014Z,535.00
2023-06-19T05:19:53.034Z,543.00
2023-06-19T05:20:53.027Z,542.00
2023-06-19T05:21:53.003Z,540.00
2023-06-19T05:22:53.013Z,540.00
2023-06-19T05:23:53.047Z,539.00
2023-06-19T05:24:52.968Z,535.00
2023-06-19T05:25:52.968Z,537.00
2023-06-19T05:26:52.984Z,545.00
2023-06-19T05:27:52.992Z,538.00
2023-06-19T05:28:52.958Z,536.00
2023-06-19T05:29:52.945Z,539.00
2023-06-19T05:30:52.964Z,543.00
2023-06-19T05:31:52.949Z,542.00
2023-06-19T05:32:52.966Z,534.00
2023-06-19T05:33:53.598Z,539.00
2023-06-19T05:34:52.932Z,543.00
2023-06-19T05:35:52.893Z,536.00
2023-06-19T05:36:52.909Z,540.00
2023-06-19T05:37:52.903Z,543.00
2023-06-19T05:38:52.898Z,538.00
2023-06-19T05:39:52.870Z,546.00
2023-06-19T05:40:52.877Z,543.00
2023-06-19T05:41:52.908Z,545.00
2023-06-19T05:42:52.841Z,544.00
2023-06-19T05:43:52.878Z,541.00
2023-06-19T05:44:52.843Z,540.00
2023-06-19T05:45:52.905Z,539.00
2023-06-19T05:46:52.865Z,541.00
2023-06-19T05:47:52.914Z,542.00
2023-06-19T05:48:52.830Z,541.00
2023-06-19T05:49:52.807Z,540.00
2023-06-19T05:50:52.843Z,537.00
2023-06-19T05:51:52.847Z,541.00
2023-06-19T05:52:52.856Z,539.00
2023-06-19T05:53:52.888Z,541.00
2023-06-19T05:54:52.912Z,541.00
2023-06-19T05:55:52.910Z,545.00
2023-06-19T05:56:52.917Z,542.00
2023-06-19T05:57:52.926Z,542.00
2023-06-19T05:58:52.932Z,543.00
2023-06-19T05:59:52.954Z,546.00
2023-06-19T06:00:52.972Z,543.00
2023-06-19T06:01:53.022Z,539.00
2023-06-19T06:02:53.150Z,539.00
2023-06-19T06:03:53.040Z,544.00
2023-06-19T06:04:53.069Z,545.00
2023-06-19T06:05:53.084Z,541.00
2023-06-19T06:06:53.042Z,542.00
2023-06-19T06:07:53.059Z,545.00
2023-06-19T06:08:53.037Z,545.00
2023-06-19T06:09:53.050Z,543.00
2023-06-19T06:10:53.036Z,543.00
2023-06-19T06:11:53.079Z,547.00
2023-06-19T06:12:53.104Z,546.00
2023-06-19T06:13:53.083Z,545.00
2023-06-19T06:14:53.104Z,539.00
2023-06-19T06:15:53.126Z,547.00
2023-06-19T06:16:53.160Z,535.00
2023-06-19T06:17:53.160Z,545.00
2023-06-19T06:18:53.189Z,544.00
2023-06-19T06:19:53.198Z,541.00
2023-06-19T06:20:53.210Z,544.00
2023-06-19T06:21:53.223Z,543.00
2023-06-19T06:22:53.221Z,542.00
2023-06-19T06:23:53.253Z,541.00
2023-06-19T06:24:53.262Z,539.00
2023-06-19T06:25:53.275Z,543.00
2023-06-19T06:26:53.296Z,544.00
2023-06-19T06:27:53.309Z,542.00
2023-06-19T06:28:53.338Z,543.00
2023-06-19T06:29:53.278Z,546.00
2023-06-19T06:30:53.330Z,539.00
2023-06-19T06:31:53.345Z,543.00
2023-06-19T06:32:53.381Z,546.00
2023-06-19T06:33:53.369Z,540.00
2023-06-19T06:34:53.386Z,542.00
2023-06-19T06:35:53.399Z,549.00
2023-06-19T06:37:05.165Z,539.00
2023-06-19T06:37:54.401Z,539.00
2023-06-19T06:38:53.432Z,540.00
2023-06-19T06:39:53.418Z,542.00
2023-06-19T06:40:53.356Z,544.00
2023-06-19T06:41:53.386Z,544.00
2023-06-19T06:42:53.395Z,546.00
2023-06-19T06:43:53.364Z,545.00
2023-06-19T06:44:53.366Z,543.00
2023-06-19T06:45:53.417Z,547.00
2023-06-19T06:46:53.364Z,541.00
2023-06-19T06:47:53.372Z,540.00
2023-06-19T06:48:53.353Z,540.00
2023-06-19T06:49:53.325Z,547.00
2023-06-19T06:50:53.307Z,552.00
2023-06-19T06:51:54.846Z,548.00
2023-06-19T06:52:53.596Z,553.00
2023-06-19T06:53:53.300Z,555.00
2023-06-19T06:54:53.288Z,554.00
2023-06-19T06:55:53.303Z,549.00
2023-06-19T06:56:53.265Z,554.00
2023-06-19T06:57:53.291Z,555.00
2023-06-19T06:58:53.245Z,554.00
2023-06-19T06:59:53.287Z,557.00
2023-06-19T07:00:53.319Z,557.00
2023-06-19T07:01:53.262Z,561.00
2023-06-19T07:02:53.296Z,557.00
2023-06-19T07:03:53.227Z,565.00
2023-06-19T07:04:53.245Z,562.00
2023-06-19T07:05:53.224Z,562.00
2023-06-19T07:06:53.212Z,555.00
2023-06-19T07:07:53.219Z,560.00
2023-06-19T07:08:53.208Z,560.00
2023-06-19T07:09:53.197Z,558.00
2023-06-19T07:10:53.236Z,559.00
2023-06-19T07:11:54.094Z,559.00
2023-06-19T07:12:53.195Z,566.00
2023-06-19T07:13:53.150Z,567.00
2023-06-19T07:14:53.190Z,563.00
2023-06-19T07:15:53.129Z,561.00
2023-06-19T07:16:53.195Z,557.00
2023-06-19T07:17:53.195Z,561.00
2023-06-19T07:18:53.135Z,559.00
2023-06-19T07:19:53.126Z,558.00
2023-06-19T07:20:53.155Z,556.00
2023-06-19T07:21:53.098Z,559.00
2023-06-19T07:22:53.112Z,562.00
2023-06-19T07:23:53.171Z,556.00
2023-06-19T07:24:53.102Z,556.00
2023-06-19T07:25:53.114Z,559.00
2023-06-19T07:26:53.088Z,558.00
2023-06-19T07:27:53.086Z,553.00
2023-06-19T07:28:53.067Z,556.00
2023-06-19T07:29:53.077Z,554.00
2023-06-19T07:30:53.042Z,560.00
2023-06-19T07:31:53.047Z,559.00
2023-06-19T07:32:53.065Z,561.00
2023-06-19T07:33:53.042Z,560.00
2023-06-19T07:34:53.038Z,556.00
2023-06-19T07:35:53.064Z,562.00
2023-06-19T07:36:53.047Z,553.00
2023-06-19T07:37:53.038Z,558.00
2023-06-19T07:38:53.024Z,557.00
2023-06-19T07:39:53.028Z,559.00
2023-06-19T07:40:53.010Z,563.00
2023-06-19T07:41:52.994Z,558.00
2023-06-19T07:42:53.027Z,562.00
2023-06-19T07:43:53.083Z,563.00
2023-06-19T07:44:52.970Z,567.00
2023-06-19T07:45:52.992Z,567.00
2023-06-19T07:46:52.966Z,558.00
2023-06-19T07:47:53.019Z,563.00
2023-06-19T07:48:52.955Z,563.00
2023-06-19T07:49:52.969Z,562.00
2023-06-19T07:50:52.961Z,565.00
2023-06-19T07:51:52.933Z,567.00
2023-06-19T07:52:52.958Z,565.00
2023-06-19T07:53:52.919Z,569.00
2023-06-19T07:54:52.929Z,568.00
2023-06-19T07:55:52.929Z,562.00
2023-06-19T07:56:52.924Z,571.00
2023-06-19T07:57:52.921Z,568.00
2023-06-19T07:58:52.875Z,569.00
2023-06-19T07:59:52.881Z,565.00
2023-06-19T08:00:52.898Z,572.00
2023-06-19T08:01:52.877Z,570.00
2023-06-19T08:02:52.912Z,577.00
2023-06-19T08:03:52.968Z,569.00
2023-06-19T08:04:53.010Z,571.00
2023-06-19T08:05:52.847Z,574.00
2023-06-19T08:06:52.867Z,574.00
2023-06-19T08:07:52.839Z,575.00
2023-06-19T08:08:52.829Z,577.00
2023-06-19T08:10:00.536Z,581.00
2023-06-19T08:10:53.953Z,582.00
2023-06-19T08:11:52.818Z,582.00
2023-06-19T08:12:54.100Z,581.00
2023-06-19T08:13:52.818Z,581.00
2023-06-19T08:14:52.792Z,581.00
2023-06-19T08:15:52.780Z,578.00
2023-06-19T08:16:52.787Z,578.00
2023-06-19T08:17:52.906Z,579.00
2023-06-19T08:18:52.761Z,582.00
2023-06-19T08:19:52.769Z,582.00
2023-06-19T08:20:52.768Z,577.00
2023-06-19T08:21:52.751Z,579.00
2023-06-19T08:22:52.768Z,576.00
2023-06-19T08:23:52.828Z,581.00
2023-06-19T08:24:52.759Z,581.00
2023-06-19T08:25:52.709Z,578.00
2023-06-19T08:26:52.710Z,575.00
2023-06-19T08:27:52.702Z,576.00
2023-06-19T08:28:52.690Z,587.00
2023-06-19T08:29:52.697Z,575.00
2023-06-19T08:30:52.689Z,578.00
2023-06-19T08:31:52.704Z,581.00
2023-06-19T08:32:53.166Z,577.00
2023-06-19T08:33:54.661Z,578.00
2023-06-19T08:34:52.668Z,576.00
2023-06-19T08:35:52.681Z,578.00
2023-06-19T08:36:52.658Z,576.00
2023-06-19T08:37:53.134Z,579.00
2023-06-19T08:38:52.675Z,582.00
2023-06-19T08:39:52.638Z,570.00
2023-06-19T08:40:52.632Z,580.00
2023-06-19T08:41:52.663Z,581.00
2023-06-19T08:42:52.642Z,578.00
2023-06-19T08:43:52.633Z,578.00
2023-06-19T08:44:52.610Z,582.00
2023-06-19T08:45:52.652Z,577.00
2023-06-19T08:46:52.628Z,578.00
2023-06-19T08:47:52.672Z,576.00
2023-06-19T08:48:52.577Z,579.00
2023-06-19T08:49:52.598Z,582.00
2023-06-19T08:50:52.593Z,582.00
2023-06-19T08:51:52.553Z,580.00
2023-06-19T08:52:52.571Z,581.00
2023-06-19T08:53:52.579Z,581.00
2023-06-19T08:54:52.544Z,581.00
2023-06-19T08:55:52.575Z,584.00
2023-06-19T08:56:52.599Z,583.00
2023-06-19T08:57:52.556Z,587.00
2023-06-19T08:58:52.567Z,580.00
2023-06-19T08:59:52.533Z,589.00
2023-06-19T09:00:52.522Z,588.00
2023-06-19T09:01:52.547Z,584.00
2023-06-19T09:03:01.088Z,583.00
2023-06-19T09:03:53.919Z,583.00
2023-06-19T09:04:52.528Z,584.00
2023-06-19T09:05:52.581Z,584.00
2023-06-19T09:06:52.645Z,585.00
2023-06-19T09:07:52.644Z,585.00
2023-06-19T09:08:52.482Z,581.00
2023-06-19T09:09:52.489Z,590.00
2023-06-19T09:10:52.496Z,584.00
2023-06-19T09:11:52.459Z,588.00
2023-06-19T09:12:52.463Z,589.00
2023-06-19T09:13:52.438Z,585.00
2023-06-19T09:14:52.463Z,584.00
2023-06-19T09:15:52.465Z,585.00
2023-06-19T09:16:52.452Z,585.00
2023-06-19T09:17:52.555Z,591.00
2023-06-19T09:18:52.429Z,590.00
2023-06-19T09:19:52.408Z,588.00
2023-06-19T09:20:52.444Z,582.00
2023-06-19T09:21:53.159Z,583.00
2023-06-19T09:22:52.407Z,589.00
2023-06-19T09:23:52.574Z,582.00
2023-06-19T09:24:52.434Z,582.00
2023-06-19T09:25:52.415Z,588.00
2023-06-19T09:26:52.364Z,582.00
2023-06-19T09:27:52.367Z,582.00
2023-06-19T09:28:52.378Z,583.00
2023-06-19T09:29:52.511Z,585.00
2023-06-19T09:30:52.373Z,584.00
2023-06-19T09:31:52.372Z,586.00
2023-06-19T09:32:52.424Z,578.00
2023-06-19T09:33:52.416Z,586.00
2023-06-19T09:34:52.444Z,578.00
2023-06-19T09:35:52.405Z,585.00
2023-06-19T09:36:52.435Z,579.00
2023-06-19T09:37:52.416Z,578.00
2023-06-19T09:38:52.438Z,582.00
2023-06-19T09:39:52.438Z,584.00
2023-06-19T09:40:52.427Z,582.00
2023-06-19T09:41:52.414Z,584.00
2023-06-19T09:42:52.443Z,584.00
2023-06-19T09:43:52.401Z,580.00
2023-06-19T09:44:52.397Z,583.00
2023-06-19T09:45:52.406Z,577.00
2023-06-19T09:46:52.487Z,571.00
2023-06-19T09:47:52.510Z,573.00
2023-06-19T09:48:52.439Z,568.00
2023-06-19T09:49:52.444Z,569.00
2023-06-19T09:50:52.473Z,563.00
2023-06-19T09:51:52.466Z,563.00
2023-06-19T09:52:52.648Z,565.00
2023-06-19T09:53:52.496Z,561.00
2023-06-19T09:54:52.491Z,564.00
2023-06-19T09:55:52.470Z,565.00
2023-06-19T09:56:52.462Z,565.00
2023-06-19T09:57:52.677Z,560.00
2023-06-19T09:58:52.514Z,561.00
2023-06-19T09:59:52.496Z,563.00
2023-06-19T10:00:52.520Z,565.00
2023-06-19T10:01:52.554Z,559.00
2023-06-19T10:02:52.701Z,564.00
2023-06-19T10:03:52.643Z,563.00
2023-06-19T10:04:52.616Z,562.00
2023-06-19T10:05:52.646Z,561.00
2023-06-19T10:06:52.653Z,560.00
2023-06-19T10:07:52.645Z,563.00
2023-06-19T10:08:52.641Z,563.00
2023-06-19T10:09:52.684Z,562.00
2023-06-19T10:10:52.684Z,565.00
2023-06-19T10:11:52.752Z,560.00
2023-06-19T10:12:52.710Z,563.00
2023-06-19T10:13:52.697Z,555.00
2023-06-19T10:14:52.740Z,557.00
2023-06-19T10:15:52.711Z,556.00
2023-06-19T10:16:52.828Z,557.00
2023-06-19T10:17:52.742Z,556.00
2023-06-19T10:18:52.770Z,558.00
2023-06-19T10:19:52.770Z,557.00
2023-06-19T10:20:52.831Z,555.00
2023-06-19T10:21:52.823Z,558.00
2023-06-19T10:22:52.833Z,556.00
2023-06-19T10:23:52.879Z,556.00
2023-06-19T10:24:52.862Z,550.00
2023-06-19T10:25:52.895Z,558.00
2023-06-19T10:26:52.859Z,550.00
2023-06-19T10:27:52.889Z,560.00
2023-06-19T10:28:52.918Z,551.00
2023-06-19T10:29:57.390Z,561.00
2023-06-19T10:30:53.928Z,562.00
2023-06-19T10:31:52.928Z,562.00
2023-06-19T10:32:52.994Z,558.00
2023-06-19T10:33:52.912Z,558.00
2023-06-19T10:34:53.153Z,557.00
2023-06-19T10:35:52.903Z,555.00
2023-06-19T10:36:52.910Z,553.00
2023-06-19T10:37:52.890Z,558.00
2023-06-19T10:38:52.866Z,557.00
2023-06-19T10:39:52.889Z,558.00
2023-06-19T10:40:52.882Z,554.00
2023-06-19T10:41:52.875Z,558.00
2023-06-19T10:42:52.830Z,557.00
2023-06-19T10:43:52.896Z,552.00
2023-06-19T10:44:52.858Z,552.00
2023-06-19T10:45:52.900Z,550.00
2023-06-19T10:46:52.844Z,554.00
2023-06-19T10:47:53.239Z,553.00
2023-06-19T10:48:52.839Z,559.00
2023-06-19T10:49:52.832Z,560.00
2023-06-19T10:50:52.795Z,547.00
2023-06-19T10:51:52.837Z,553.00
2023-06-19T10:52:52.810Z,558.00
2023-06-19T10:53:52.783Z,549.00
2023-06-19T10:54:52.797Z,554.00
2023-06-19T10:55:52.777Z,553.00
2023-06-19T10:56:52.790Z,552.00
2023-06-19T10:57:52.830Z,557.00
2023-06-19T10:58:52.783Z,553.00
2023-06-19T10:59:52.843Z,554.00
2023-06-19T11:00:52.824Z,553.00
2023-06-19T11:01:52.868Z,551.00
2023-06-19T11:02:52.949Z,552.00
2023-06-19T11:03:52.862Z,550.00
2023-06-19T11:04:52.849Z,549.00
2023-06-19T11:05:52.869Z,555.00
2023-06-19T11:06:52.871Z,549.00
2023-06-19T11:07:52.884Z,549.00
2023-06-19T11:08:52.848Z,553.00
2023-06-19T11:09:52.884Z,554.00
2023-06-19T11:10:52.876Z,548.00
2023-06-19T11:11:52.855Z,548.00
2023-06-19T11:12:52.881Z,549.00
2023-06-19T11:13:52.877Z,555.00
2023-06-19T11:14:52.878Z,555.00
2023-06-19T11:15:53.047Z,554.00
2023-06-19T11:16:52.974Z,553.00
2023-06-19T11:17:52.931Z,547.00
2023-06-19T11:18:52.932Z,556.00
2023-06-19T11:19:52.888Z,551.00
2023-06-19T11:20:52.956Z,555.00
2023-06-19T11:21:52.968Z,549.00
2023-06-19T11:22:52.930Z,550.00
2023-06-19T11:23:52.976Z,551.00
2023-06-19T11:24:52.966Z,553.00
2023-06-19T11:25:52.999Z,554.00
2023-06-19T11:26:53.381Z,555.00
2023-06-19T11:27:53.064Z,553.00
2023-06-19T11:28:53.067Z,553.00
2023-06-19T11:29:53.064Z,547.00
2023-06-19T11:30:53.137Z,549.00
2023-06-19T11:31:53.074Z,552.00
2023-06-19T11:32:53.165Z,551.00
2023-06-19T11:33:53.108Z,555.00
2023-06-19T11:34:53.112Z,552.00
2023-06-19T11:35:53.083Z,553.00
2023-06-19T11:36:53.110Z,554.00
2023-06-19T11:37:53.147Z,550.00
2023-06-19T11:38:53.116Z,556.00
2023-06-19T11:39:53.105Z,550.00
2023-06-19T11:40:53.147Z,549.00
2023-06-19T11:41:54.856Z,557.00
2023-06-19T11:42:53.153Z,552.00
2023-06-19T11:43:53.142Z,552.00
2023-06-19T11:44:53.221Z,554.00
2023-06-19T11:45:53.198Z,555.00
2023-06-19T11:46:53.191Z,551.00
2023-06-19T11:47:53.709Z,553.00
2023-06-19T11:49:06.653Z,553.00
2023-06-19T11:49:54.294Z,553.00
2023-06-19T11:50:53.286Z,554.00
2023-06-19T11:51:53.273Z,555.00
2023-06-19T11:52:53.292Z,552.00
2023-06-19T11:53:53.296Z,557.00
2023-06-19T11:54:53.273Z,554.00
2023-06-19T11:55:53.264Z,558.00
2023-06-19T11:56:53.288Z,556.00
2023-06-19T11:57:53.235Z,556.00
2023-06-19T11:58:53.258Z,555.00
2023-06-19T11:59:53.217Z,557.00
2023-06-19T12:00:53.225Z,554.00
2023-06-19T12:01:53.230Z,556.00
2023-06-19T12:02:53.300Z,552.00
2023-06-19T12:03:53.307Z,557.00
2023-06-19T12:04:53.311Z,551.00
2023-06-19T12:05:53.192Z,552.00
2023-06-19T12:06:53.332Z,552.00
2023-06-19T12:07:53.210Z,555.00
2023-06-19T12:08:53.222Z,552.00
2023-06-19T12:09:53.314Z,552.00
2023-06-19T12:10:53.294Z,557.00
2023-06-19T12:11:53.324Z,555.00
2023-06-19T12:12:53.377Z,557.00
2023-06-19T12:13:53.439Z,556.00
2023-06-19T12:14:53.713Z,554.00
2023-06-19T12:15:53.621Z,557.00
2023-06-19T12:16:53.622Z,556.00
2023-06-19T12:17:53.742Z,555.00
2023-06-19T12:18:53.677Z,557.00
2023-06-19T12:19:53.710Z,558.00
2023-06-19T12:20:53.738Z,557.00
2023-06-19T12:21:53.800Z,557.00
2023-06-19T12:22:53.867Z,554.00
2023-06-19T12:23:53.927Z,558.00
2023-06-19T12:24:53.985Z,555.00
2023-06-19T12:25:54.056Z,557.00
2023-06-19T12:26:54.061Z,553.00
2023-06-19T12:27:55.702Z,560.00
2023-06-19T12:28:54.578Z,561.00